createdAt,value
2018-03-17T00:00:28.363Z,84.00
2018-03-17T00:02:57.829Z,84.00
2018-03-17T00:05:26.615Z,83.90
2018-03-17T00:07:56.714Z,83.50
2018-03-17T00:10:27.861Z,83.50
2018-03-17T00:12:56.429Z,83.50
2018-03-17T00:15:24.571Z,83.80
2018-03-17T00:17:53.874Z,84.30
2018-03-17T00:20:22.517Z,85.10
2018-03-17T00:22:51.455Z,85.30
2018-03-17T00:25:19.602Z,85.40
2018-03-17T00:27:47.298Z,85.80
2018-03-17T00:30:16.415Z,86.00
2018-03-17T00:32:45.126Z,85.90
2018-03-17T00:35:12.812Z,86.30
2018-03-17T00:37:40.681Z,86.90
2018-03-17T00:40:08.379Z,86.10
2018-03-17T00:42:37.054Z,85.30
2018-03-17T00:45:04.939Z,84.80
2018-03-17T00:47:33.469Z,85.80
2018-03-17T00:50:01.211Z,84.60
2018-03-17T00:52:32.025Z,84.30
2018-03-17T00:54:59.645Z,84.80
2018-03-17T00:57:28.139Z,84.00
2018-03-17T00:59:57.223Z,83.00
2018-03-17T01:02:24.852Z,82.90
2018-03-17T01:04:52.474Z,82.30
2018-03-17T01:07:20.667Z,82.80
2018-03-17T01:09:49.286Z,82.50
2018-03-17T01:12:19.994Z,82.40
2018-03-17T01:14:47.684Z,81.50
2018-03-17T01:17:15.620Z,81.70
2018-03-17T01:19:43.296Z,82.10
2018-03-17T01:22:11.740Z,81.80
2018-03-17T01:24:40.297Z,81.80
2018-03-17T01:27:09.047Z,81.70
2018-03-17T01:29:36.766Z,81.50
2018-03-17T01:32:05.810Z,81.30
2018-03-17T01:34:34.805Z,81.70
2018-03-17T01:37:03.279Z,81.70
2018-03-17T01:39:31.181Z,81.80
2018-03-17T01:41:59.767Z,81.50
2018-03-17T01:44:28.249Z,81.30
2018-03-17T01:46:56.061Z,81.10
2018-03-17T01:49:25.146Z,80.80
2018-03-17T01:51:53.742Z,81.00
2018-03-17T01:54:31.544Z,80.80
2018-03-17T01:57:00.323Z,80.90
2018-03-17T01:59:29.206Z,80.10
2018-03-17T02:01:58.666Z,80.10
2018-03-17T02:04:35.456Z,80.10
2018-03-17T02:07:13.996Z,80.00
2018-03-17T02:09:48.713Z,80.10
2018-03-17T02:12:27.076Z,80.50
2018-03-17T02:14:55.409Z,80.60
2018-03-17T02:17:23.087Z,81.10
2018-03-17T02:19:51.589Z,81.10
2018-03-17T02:22:19.298Z,81.10
2018-03-17T02:24:48.801Z,81.50
2018-03-17T02:27:16.592Z,80.60
2018-03-17T02:29:44.260Z,81.00
2018-03-17T02:32:12.651Z,81.40
2018-03-17T02:34:41.017Z,80.80
2018-03-17T02:37:08.818Z,81.00
2018-03-17T02:39:37.228Z,81.00
2018-03-17T02:42:05.993Z,80.80
2018-03-17T02:44:34.415Z,80.70
2018-03-17T02:47:02.137Z,80.20
2018-03-17T02:49:29.942Z,80.20
2018-03-17T02:51:57.603Z,80.50
2018-03-17T02:54:26.017Z,80.40
2018-03-17T02:56:53.778Z,80.20
2018-03-17T02:59:21.683Z,80.10
2018-03-17T03:01:49.534Z,80.00
2018-03-17T03:04:17.322Z,79.80
2018-03-17T03:06:45.062Z,80.00
2018-03-17T03:09:12.868Z,80.00
2018-03-17T03:11:45.522Z,79.40
2018-03-17T03:14:16.520Z,79.00
2018-03-17T03:16:48.969Z,79.00
2018-03-17T03:19:17.370Z,78.50
2018-03-17T03:21:46.066Z,78.50
2018-03-17T03:24:15.374Z,79.20
2018-03-17T03:26:43.231Z,78.40
2018-03-17T03:29:12.725Z,77.70
2018-03-17T03:31:40.426Z,77.80
2018-03-17T03:34:09.973Z,78.40
2018-03-17T03:36:40.745Z,78.40
2018-03-17T03:39:14.977Z,78.30
2018-03-17T03:41:42.651Z,78.30
2018-03-17T03:44:13.191Z,78.90
2018-03-17T03:46:43.071Z,78.90
2018-03-17T03:49:12.514Z,78.20
2018-03-17T03:51:41.516Z,78.50
2018-03-17T03:54:10.062Z,78.40
2018-03-17T03:56:39.598Z,78.40
2018-03-17T03:59:07.420Z,78.50
2018-03-17T04:01:36.046Z,78.70
2018-03-17T04:04:03.827Z,78.70
2018-03-17T04:06:31.471Z,78.80
2018-03-17T04:09:00.448Z,79.00
2018-03-17T04:11:28.835Z,79.40
2018-03-17T04:13:56.524Z,79.20
2018-03-17T04:16:25.003Z,79.70
2018-03-17T04:18:54.611Z,79.40
2018-03-17T04:21:22.295Z,79.30
2018-03-17T04:23:50.933Z,78.80
2018-03-17T04:26:19.767Z,78.90
2018-03-17T04:28:47.524Z,80.00
2018-03-17T04:31:15.227Z,79.30
2018-03-17T04:33:44.271Z,79.60
2018-03-17T04:36:14.116Z,79.70
2018-03-17T04:38:41.792Z,79.40
2018-03-17T04:41:09.400Z,79.40
2018-03-17T04:43:36.965Z,79.10
2018-03-17T04:46:04.626Z,79.40
2018-03-17T04:48:33.434Z,78.80
2018-03-17T04:51:01.867Z,78.90
2018-03-17T04:53:29.482Z,78.90
2018-03-17T04:55:57.071Z,79.30
2018-03-17T04:58:24.809Z,78.70
2018-03-17T05:00:53.110Z,78.70
2018-03-17T05:03:20.725Z,78.80
2018-03-17T05:05:49.114Z,78.40
2018-03-17T05:08:16.797Z,78.50
2018-03-17T05:10:45.148Z,78.30
2018-03-17T05:13:12.769Z,78.30
2018-03-17T05:15:40.419Z,78.90
2018-03-17T05:18:08.050Z,79.30
2018-03-17T05:20:35.697Z,79.10
2018-03-17T05:23:03.488Z,78.30
2018-03-17T05:25:31.944Z,78.10
2018-03-17T05:27:59.555Z,78.10
2018-03-17T05:30:28.860Z,77.60
2018-03-17T05:32:56.517Z,78.30
2018-03-17T05:35:24.182Z,77.60
2018-03-17T05:37:52.033Z,77.60
2018-03-17T05:40:19.686Z,77.40
2018-03-17T05:42:47.300Z,77.60
2018-03-17T05:45:15.699Z,77.60
2018-03-17T05:47:43.313Z,77.60
2018-03-17T05:50:11.011Z,77.50
2018-03-17T05:52:39.723Z,77.60
2018-03-17T05:55:07.377Z,77.50
2018-03-17T05:57:34.972Z,77.30
2018-03-17T06:00:02.725Z,76.90
2018-03-17T06:02:30.409Z,77.10
2018-03-17T06:05:00.130Z,76.50
2018-03-17T06:07:27.714Z,76.50
2018-03-17T06:09:55.326Z,76.80
2018-03-17T06:12:22.978Z,76.30
2018-03-17T06:14:50.886Z,76.40
2018-03-17T06:17:18.546Z,76.30
2018-03-17T06:19:46.224Z,76.40
2018-03-17T06:22:14.632Z,76.80
2018-03-17T06:24:42.500Z,76.10
2018-03-17T06:27:11.012Z,76.30
2018-03-17T06:29:38.619Z,76.60
2018-03-17T06:32:10.982Z,75.70
2018-03-17T06:34:38.592Z,76.00
2018-03-17T06:37:06.183Z,76.00
2018-03-17T06:39:33.797Z,76.30
2018-03-17T06:42:01.447Z,76.10
2018-03-17T06:44:29.534Z,76.30
2018-03-17T06:46:57.242Z,76.30
2018-03-17T06:49:24.842Z,76.10
2018-03-17T06:51:53.245Z,75.90
2018-03-17T06:54:25.034Z,75.80
2018-03-17T06:56:52.894Z,75.50
2018-03-17T06:59:20.605Z,75.50
2018-03-17T07:01:48.450Z,75.10
2018-03-17T07:04:16.082Z,74.60
2018-03-17T07:06:44.405Z,75.00
2018-03-17T07:09:12.980Z,74.30
2018-03-17T07:11:41.367Z,75.10
2018-03-17T07:14:08.990Z,75.10
2018-03-17T07:16:36.668Z,74.60
2018-03-17T07:19:04.358Z,74.40
2018-03-17T07:21:32.039Z,74.50
2018-03-17T07:23:59.691Z,74.60
2018-03-17T07:26:28.239Z,74.50
2018-03-17T07:28:56.431Z,74.20
2018-03-17T07:31:24.044Z,74.10
2018-03-17T07:33:51.658Z,74.70
2018-03-17T07:36:19.976Z,74.20
2018-03-17T07:38:48.482Z,74.30
2018-03-17T07:41:16.142Z,73.70
2018-03-17T07:43:43.883Z,73.00
2018-03-17T07:46:12.517Z,74.10
2018-03-17T07:48:41.131Z,73.50
2018-03-17T07:51:09.483Z,73.60
2018-03-17T07:53:37.943Z,73.20
2018-03-17T07:56:08.329Z,73.20
2018-03-17T07:58:35.913Z,73.00
2018-03-17T08:01:03.489Z,73.20
2018-03-17T08:03:32.173Z,73.00
2018-03-17T08:05:59.798Z,72.60
2018-03-17T08:08:28.172Z,72.40
2018-03-17T08:10:57.806Z,72.50
2018-03-17T08:13:26.170Z,72.50
2018-03-17T08:15:53.798Z,72.50
2018-03-17T08:18:21.404Z,72.30
2018-03-17T08:20:49.000Z,72.90
2018-03-17T08:23:17.132Z,72.10
2018-03-17T08:25:44.870Z,72.40
2018-03-17T08:28:15.898Z,71.90
2018-03-17T08:30:45.352Z,71.60
2018-03-17T08:33:13.119Z,72.10
2018-03-17T08:35:40.951Z,71.40
2018-03-17T08:38:09.539Z,70.80
2018-03-17T08:40:38.271Z,71.10
2018-03-17T08:43:07.080Z,71.10
2018-03-17T08:45:36.957Z,71.20
2018-03-17T08:48:04.682Z,71.10
2018-03-17T08:50:33.218Z,71.10
2018-03-17T08:53:01.976Z,71.20
2018-03-17T08:55:31.316Z,71.20
2018-03-17T08:57:59.056Z,71.40
2018-03-17T09:00:28.378Z,70.90
2018-03-17T09:02:57.525Z,71.60
2018-03-17T09:05:26.823Z,70.10
2018-03-17T09:07:57.368Z,70.20
2018-03-17T09:10:27.917Z,70.70
2018-03-17T09:12:57.321Z,70.60
2018-03-17T09:15:27.135Z,70.50
2018-03-17T09:17:59.169Z,70.10
2018-03-17T09:20:29.899Z,69.80
2018-03-17T09:22:57.796Z,70.30
2018-03-17T09:25:26.405Z,69.80
2018-03-17T09:27:55.687Z,69.80
2018-03-17T09:30:25.154Z,69.70
2018-03-17T09:32:55.730Z,70.00
2018-03-17T09:35:25.130Z,70.10
2018-03-17T09:37:53.467Z,70.00
2018-03-17T09:40:21.357Z,69.50
2018-03-17T09:42:49.149Z,69.30
2018-03-17T09:45:18.276Z,69.30
2018-03-17T09:47:48.055Z,68.70
2018-03-17T09:50:16.743Z,68.50
2018-03-17T09:52:45.249Z,68.40
2018-03-17T09:55:13.117Z,68.20
2018-03-17T09:57:43.205Z,68.20
2018-03-17T10:00:11.663Z,68.90
2018-03-17T10:02:39.237Z,68.90
2018-03-17T10:05:07.818Z,68.60
2018-03-17T10:07:35.464Z,69.10
2018-03-17T10:10:05.109Z,69.50
2018-03-17T10:12:32.802Z,68.70
2018-03-17T10:15:02.078Z,68.70
2018-03-17T10:17:30.806Z,69.10
2018-03-17T10:19:59.918Z,68.80
2018-03-17T10:22:27.548Z,68.80
2018-03-17T10:24:55.196Z,68.90
2018-03-17T10:27:23.782Z,69.20
2018-03-17T10:29:51.415Z,69.70
2018-03-17T10:32:19.029Z,69.90
2018-03-17T10:34:49.407Z,69.50
2018-03-17T10:37:18.061Z,69.60
2018-03-17T10:39:45.990Z,70.00
2018-03-17T10:42:13.978Z,69.30
2018-03-17T10:44:42.619Z,69.10
2018-03-17T10:47:15.851Z,69.30
2018-03-17T10:49:44.967Z,68.20
2018-03-17T10:52:14.112Z,68.20
2018-03-17T10:54:43.808Z,67.80
2018-03-17T10:57:12.602Z,67.70
2018-03-17T10:59:40.472Z,68.30
2018-03-17T11:02:13.282Z,67.40
2018-03-17T11:04:41.644Z,68.20
2018-03-17T11:07:11.506Z,68.10
2018-03-17T11:09:39.452Z,68.10
2018-03-17T11:12:07.166Z,68.00
2018-03-17T11:14:37.917Z,68.30
2018-03-17T11:17:07.751Z,68.30
2018-03-17T11:19:41.890Z,67.30
2018-03-17T11:22:10.067Z,66.60
2018-03-17T11:24:42.119Z,66.20
2018-03-17T11:27:10.009Z,66.10
2018-03-17T11:29:37.835Z,66.20
2018-03-17T11:32:05.459Z,66.50
2018-03-17T11:37:07.159Z,65.30
2018-03-17T11:39:35.883Z,65.70
2018-03-17T11:42:03.580Z,65.20
2018-03-17T11:44:32.088Z,64.80
2018-03-17T11:47:00.725Z,64.90
2018-03-17T11:49:29.370Z,64.90
2018-03-17T11:51:58.278Z,65.00
2018-03-17T11:54:29.124Z,64.70
2018-03-17T11:56:57.552Z,64.70
2018-03-17T11:59:26.601Z,64.60
2018-03-17T12:01:55.153Z,65.50
2018-03-17T12:04:22.735Z,65.50
2018-03-17T12:06:51.941Z,64.60
2018-03-17T12:09:20.388Z,65.30
2018-03-17T12:11:49.330Z,65.20
2018-03-17T12:14:17.822Z,66.10
2018-03-17T12:16:46.964Z,65.10
2018-03-17T12:19:20.576Z,65.60
2018-03-17T12:21:49.112Z,65.00
2018-03-17T12:24:17.751Z,66.10
2018-03-17T12:26:46.350Z,65.90
2018-03-17T12:29:14.706Z,66.70
2018-03-17T12:31:44.458Z,67.10
2018-03-17T12:34:12.412Z,67.10
2018-03-17T12:36:41.840Z,68.40
2018-03-17T12:39:10.397Z,66.90
2018-03-17T12:41:39.598Z,67.10
2018-03-17T12:44:09.965Z,67.30
2018-03-17T12:46:37.717Z,67.60
2018-03-17T12:49:05.635Z,67.60
2018-03-17T12:51:33.464Z,68.30
2018-03-17T12:54:03.448Z,67.40
2018-03-17T12:56:32.111Z,68.20
2018-03-17T12:59:00.534Z,68.70
2018-03-17T13:01:28.121Z,68.70
2018-03-17T13:03:57.052Z,68.20
2018-03-17T13:06:27.701Z,68.90
2018-03-17T13:08:55.451Z,68.90
2018-03-17T13:11:23.087Z,69.40
2018-03-17T13:13:51.550Z,68.50
2018-03-17T13:16:19.174Z,68.40
2018-03-17T13:18:48.059Z,68.90
2018-03-17T13:21:17.116Z,68.70
2018-03-17T13:23:44.792Z,68.00
2018-03-17T13:26:13.165Z,68.00
2018-03-17T13:28:40.846Z,68.00
2018-03-17T13:31:09.234Z,67.00
2018-03-17T13:33:37.702Z,66.80
2018-03-17T13:36:19.101Z,67.20
2018-03-17T13:38:49.438Z,66.50
2018-03-17T13:41:19.283Z,66.50
2018-03-17T13:43:47.274Z,65.90
2018-03-17T13:46:16.521Z,64.90
2018-03-17T13:48:44.261Z,65.50
2018-03-17T13:51:14.324Z,64.80
2018-03-17T13:53:43.604Z,65.60
2018-03-17T13:56:11.339Z,65.50
2018-03-17T13:58:40.550Z,65.40
2018-03-17T14:01:09.216Z,65.00
2018-03-17T14:03:36.954Z,64.40
2018-03-17T14:06:06.729Z,64.50
2018-03-17T14:08:36.702Z,64.20
2018-03-17T14:11:04.644Z,64.20
2018-03-17T14:13:32.290Z,64.70
2018-03-17T14:15:59.970Z,64.60
2018-03-17T14:21:03.571Z,64.50
2018-03-17T14:23:32.462Z,64.00
2018-03-17T14:26:01.893Z,64.70
2018-03-17T14:28:30.555Z,64.60
2018-03-17T14:30:59.733Z,64.50
2018-03-17T14:33:27.995Z,64.30
2018-03-17T14:35:56.501Z,63.90
2018-03-17T14:38:24.119Z,63.80
2018-03-17T14:40:53.393Z,63.80
2018-03-17T14:43:22.442Z,63.80
2018-03-17T14:45:52.322Z,63.90
2018-03-17T14:48:21.851Z,61.90
2018-03-17T14:50:51.342Z,61.20
2018-03-17T14:53:18.972Z,61.20
2018-03-17T14:55:48.460Z,61.40
2018-03-17T14:58:16.270Z,61.70
2018-03-17T15:00:44.003Z,61.40
2018-03-17T15:03:12.613Z,62.10
2018-03-17T15:05:42.221Z,62.10
2018-03-17T15:08:10.156Z,61.90
2018-03-17T15:10:37.809Z,61.20
2018-03-17T15:13:07.633Z,61.00
2018-03-17T15:15:39.907Z,61.10
2018-03-17T15:18:11.187Z,60.80
2018-03-17T15:20:41.393Z,61.40
2018-03-17T15:23:10.414Z,61.80
2018-03-17T15:25:45.012Z,60.80
2018-03-17T15:28:17.138Z,61.10
2018-03-17T15:30:48.433Z,60.90
2018-03-17T15:33:16.316Z,60.70
2018-03-17T15:35:46.818Z,60.00
2018-03-17T15:38:15.046Z,60.00
2018-03-17T15:40:43.737Z,60.60
2018-03-17T15:43:12.438Z,60.50
2018-03-17T15:45:45.344Z,60.70
2018-03-17T15:48:14.027Z,60.60
2018-03-17T15:50:45.077Z,60.10
2018-03-17T15:53:13.664Z,60.40
2018-03-17T15:55:42.945Z,59.80
2018-03-17T15:58:11.425Z,59.70
2018-03-17T16:00:41.275Z,59.70
2018-03-17T16:03:09.433Z,59.90
2018-03-17T16:05:38.914Z,59.00
2018-03-17T16:08:07.750Z,59.00
2018-03-17T16:10:35.398Z,59.30
2018-03-17T16:13:04.206Z,60.00
2018-03-17T16:15:31.776Z,59.00
2018-03-17T16:17:59.435Z,59.30
2018-03-17T16:20:27.259Z,59.40
2018-03-17T16:22:56.864Z,59.60
2018-03-17T16:25:25.031Z,59.30
2018-03-17T16:27:54.852Z,59.80
2018-03-17T16:30:23.951Z,60.50
2018-03-17T16:32:53.415Z,60.00
2018-03-17T16:35:21.223Z,59.60
2018-03-17T16:37:49.064Z,60.00
2018-03-17T16:40:16.759Z,59.70
2018-03-17T16:42:45.918Z,60.30
2018-03-17T16:45:13.602Z,59.70
2018-03-17T16:47:41.610Z,59.90
2018-03-17T16:50:10.972Z,59.60
2018-03-17T16:52:38.674Z,59.60
2018-03-17T16:55:08.070Z,59.90
2018-03-17T16:57:35.725Z,59.90
2018-03-17T17:00:04.330Z,59.40
2018-03-17T17:02:32.748Z,59.90
2018-03-17T17:05:02.348Z,59.90
2018-03-17T17:07:30.007Z,59.20
2018-03-17T17:09:57.686Z,59.10
2018-03-17T17:12:26.229Z,59.80
2018-03-17T17:14:55.231Z,59.50
2018-03-17T17:17:22.911Z,59.50
2018-03-17T17:19:50.519Z,59.50
2018-03-17T17:22:18.190Z,59.80
2018-03-17T17:24:46.808Z,59.70
2018-03-17T17:27:15.032Z,59.80
2018-03-17T17:29:42.667Z,59.30
2018-03-17T17:32:11.088Z,59.80
2018-03-17T17:34:38.760Z,59.70
2018-03-17T17:37:06.722Z,59.50
2018-03-17T17:39:34.330Z,59.90
2018-03-17T17:42:02.356Z,60.10
2018-03-17T17:44:29.970Z,60.20
2018-03-17T17:46:57.619Z,60.30
2018-03-17T17:49:25.434Z,59.80
2018-03-17T17:51:53.823Z,59.70
2018-03-17T17:54:22.957Z,59.70
2018-03-17T17:56:50.917Z,59.70
2018-03-17T17:59:18.660Z,59.70
2018-03-17T18:01:46.249Z,60.10
2018-03-17T18:04:13.891Z,59.70
2018-03-17T18:06:42.786Z,59.60
2018-03-17T18:09:10.395Z,59.50
2018-03-17T18:11:38.042Z,59.20
2018-03-17T18:14:05.678Z,59.80
2018-03-17T18:16:33.330Z,59.60
2018-03-17T18:19:00.964Z,59.30
2018-03-17T18:21:28.592Z,59.70
2018-03-17T18:23:59.200Z,60.20
2018-03-17T18:26:26.847Z,60.20
2018-03-17T18:28:55.390Z,59.80
2018-03-17T18:31:24.527Z,59.50
2018-03-17T18:33:52.191Z,59.50
2018-03-17T18:36:20.569Z,59.40
2018-03-17T18:38:49.401Z,59.40
2018-03-17T18:41:18.421Z,59.50
2018-03-17T18:43:46.864Z,60.00
2018-03-17T18:46:14.474Z,59.90
2018-03-17T18:48:42.115Z,59.90
2018-03-17T18:51:09.725Z,60.00
2018-03-17T18:53:37.850Z,59.80
2018-03-17T18:56:05.605Z,60.00
2018-03-17T18:58:33.206Z,59.90
2018-03-17T19:01:00.879Z,60.20
2018-03-17T19:03:29.229Z,60.20
2018-03-17T19:05:56.809Z,60.20
2018-03-17T19:08:26.044Z,60.20
2018-03-17T19:10:54.697Z,59.90
2018-03-17T19:13:22.484Z,59.90
2018-03-17T19:15:50.826Z,60.10
2018-03-17T19:18:18.523Z,60.10
2018-03-17T19:20:46.869Z,59.90
2018-03-17T19:23:14.548Z,59.80
2018-03-17T19:25:42.194Z,59.90
2018-03-17T19:28:10.651Z,60.00
2018-03-17T19:30:38.374Z,60.00
2018-03-17T19:33:06.558Z,59.90
2018-03-17T19:35:34.770Z,59.90
2018-03-17T19:38:02.912Z,59.80
2018-03-17T19:40:30.788Z,60.30
2018-03-17T19:42:59.689Z,60.30
2018-03-17T19:45:27.412Z,60.00
2018-03-17T19:47:55.034Z,59.80
2018-03-17T19:50:22.631Z,59.90
2018-03-17T19:52:50.295Z,59.90
2018-03-17T19:55:18.025Z,59.90
2018-03-17T19:57:45.716Z,59.90
2018-03-17T20:00:13.454Z,60.00
2018-03-17T20:02:43.249Z,59.80
2018-03-17T20:05:10.911Z,59.70
2018-03-17T20:07:38.518Z,59.70
2018-03-17T20:10:06.935Z,60.00
2018-03-17T20:12:34.637Z,59.90
2018-03-17T20:15:03.203Z,60.20
2018-03-17T20:17:31.420Z,60.20
2018-03-17T20:19:59.250Z,60.30
2018-03-17T20:22:29.476Z,59.90
2018-03-17T20:24:57.135Z,60.40
2018-03-17T20:27:24.777Z,59.60
2018-03-17T20:29:52.486Z,59.90
2018-03-17T20:32:20.142Z,59.80
2018-03-17T20:34:49.679Z,59.80
2018-03-17T20:37:17.404Z,60.10
2018-03-17T20:39:45.984Z,59.70
2018-03-17T20:42:15.917Z,59.70
2018-03-17T20:44:43.577Z,59.60
2018-03-17T20:47:13.153Z,59.90
2018-03-17T20:49:41.739Z,59.90
2018-03-17T20:52:10.243Z,59.60
2018-03-17T20:54:37.931Z,59.50
2018-03-17T20:57:07.411Z,59.60
2018-03-17T20:59:35.898Z,59.90
2018-03-17T21:02:03.842Z,59.90
2018-03-17T21:04:31.490Z,59.60
2018-03-17T21:07:00.029Z,59.30
2018-03-17T21:09:27.738Z,59.40
2018-03-17T21:11:55.444Z,59.70
2018-03-17T21:14:23.117Z,59.70
2018-03-17T21:16:51.804Z,59.50
2018-03-17T21:19:19.809Z,59.50
2018-03-17T21:21:51.452Z,59.70
2018-03-17T21:24:20.022Z,59.70
2018-03-17T21:26:51.183Z,59.50
2018-03-17T21:29:19.067Z,59.50
2018-03-17T21:31:48.450Z,59.80
2018-03-17T21:34:17.499Z,59.80
2018-03-17T21:36:45.221Z,59.70
2018-03-17T21:39:13.809Z,59.60
2018-03-17T21:41:41.613Z,59.50
2018-03-17T21:44:10.644Z,59.70
2018-03-17T21:46:40.203Z,59.60
2018-03-17T21:49:08.950Z,60.20
2018-03-17T21:51:36.673Z,59.80
2018-03-17T21:54:04.725Z,59.60
2018-03-17T21:56:32.588Z,59.30
2018-03-17T21:59:00.270Z,59.30
2018-03-17T22:01:28.312Z,59.40
2018-03-17T22:03:57.694Z,59.40
2018-03-17T22:06:25.382Z,59.20
2018-03-17T22:08:53.124Z,59.40
2018-03-17T22:11:20.812Z,59.50
2018-03-17T22:13:49.502Z,59.50
2018-03-17T22:16:18.265Z,59.50
2018-03-17T22:18:45.953Z,59.60
2018-03-17T22:21:13.733Z,59.50
2018-03-17T22:23:41.461Z,59.50
2018-03-17T22:26:09.852Z,59.80
2018-03-17T22:28:37.599Z,59.70
2018-03-17T22:31:05.266Z,59.80
2018-03-17T22:33:33.781Z,59.50
2018-03-17T22:36:02.311Z,59.50
2018-03-17T22:38:31.108Z,59.50
2018-03-17T22:40:59.690Z,59.90
2018-03-17T22:43:28.406Z,59.50
2018-03-17T22:45:56.106Z,59.90
2018-03-17T22:48:23.765Z,59.90
2018-03-17T22:50:51.465Z,59.80
2018-03-17T22:53:19.138Z,59.90
2018-03-17T22:55:47.178Z,60.00
2018-03-17T22:58:14.861Z,59.90
2018-03-17T23:00:42.538Z,59.80
2018-03-17T23:03:10.190Z,60.10
2018-03-17T23:05:37.932Z,60.20
2018-03-17T23:08:05.594Z,60.10
2018-03-17T23:10:34.761Z,60.70
2018-03-17T23:13:02.418Z,60.60
2018-03-17T23:15:30.920Z,60.70
2018-03-17T23:17:58.582Z,60.40
2018-03-17T23:20:26.211Z,60.40
2018-03-17T23:22:53.853Z,60.60
2018-03-17T23:25:21.555Z,60.70
2018-03-17T23:27:49.955Z,60.70
2018-03-17T23:30:19.450Z,60.60
2018-03-17T23:32:47.323Z,60.80
2018-03-17T23:35:15.029Z,61.00
2018-03-17T23:37:43.494Z,61.10
2018-03-17T23:40:11.168Z,61.20
2018-03-17T23:42:38.767Z,61.10
2018-03-17T23:45:06.871Z,61.00
2018-03-17T23:47:34.525Z,61.10
2018-03-17T23:50:02.972Z,61.50
2018-03-17T23:52:30.675Z,61.50
2018-03-17T23:54:58.405Z,61.20
2018-03-17T23:57:26.789Z,60.90
2018-03-17T23:59:54.519Z,61.00
